IBE2471 LEMD-EBBR
Flight info
| Callsign | IBE2471 |
|---|---|
| Flight time | N/A |
| Altitude | 38000 |
| Route | SIE N858 ABRIX DCT CNA DCT ADABI DCT BOKNO UN858 VANAD UN874 BAMES UT191 PODEM UN873 BAZOS DCT BELDI DCT VEKIN Z173 ARVOL |
| Aircraft | A21N/M-SDE2E3FGHIRWXY/LB1 |
Departure
| Time | N/A |
|---|---|
| Airport | Adolfo Suárez Madrid–Barajas Airport (LEMD) |
Arrival
| Time | 2026-04-30 18:16 |
|---|---|
| Airport | Brussels Airport (EBBR) |
| Time | Latitude | Longitude | Altitude | Speed | Heading |
|---|---|---|---|---|---|
| 2026-04-30 17:39 | 48.20489 | 1.09375 | 38095 ft | 457 kts | 20° |
| 2026-04-30 17:42 | 48.50659 | 1.24809 | 38110 ft | 458 kts | 21° |
| 2026-04-30 17:43 | 48.65750 | 1.32471 | 38124 ft | 458 kts | 20° |
| 2026-04-30 17:44 | 48.83909 | 1.41657 | 38133 ft | 458 kts | 20° |
| 2026-04-30 17:47 | 49.11780 | 1.51982 | 38130 ft | 462 kts | 9° |
| 2026-04-30 17:48 | 49.24356 | 1.55682 | 38140 ft | 458 kts | 24° |
| 2026-04-30 17:48 | 49.32128 | 1.63858 | 38140 ft | 453 kts | 44° |
| 2026-04-30 17:50 | 49.50249 | 1.90620 | 38162 ft | 451 kts | 46° |
| 2026-04-30 17:52 | 49.63789 | 2.10681 | 38153 ft | 450 kts | 46° |
| 2026-04-30 17:53 | 49.74995 | 2.27417 | 37855 ft | 447 kts | 46° |
| 2026-04-30 17:54 | 49.83935 | 2.40847 | 35601 ft | 449 kts | 47° |
| 2026-04-30 17:55 | 49.92912 | 2.54578 | 33420 ft | 455 kts | 51° |
| 2026-04-30 17:56 | 50.01266 | 2.69077 | 30047 ft | 456 kts | 52° |
| 2026-04-30 17:57 | 50.07439 | 2.80019 | 27282 ft | 434 kts | 52° |
| 2026-04-30 17:58 | 50.13267 | 2.90380 | 24736 ft | 417 kts | 52° |
| 2026-04-30 17:59 | 50.20737 | 3.03725 | 21044 ft | 400 kts | 51° |
| 2026-04-30 18:00 | 50.27809 | 3.16408 | 18126 ft | 371 kts | 52° |
| 2026-04-30 18:00 | 50.32735 | 3.25281 | 16037 ft | 350 kts | 52° |
| 2026-04-30 18:01 | 50.35863 | 3.30935 | 14821 ft | 335 kts | 52° |
| 2026-04-30 18:02 | 50.40318 | 3.39004 | 12823 ft | 323 kts | 52° |
| 2026-04-30 18:02 | 50.44707 | 3.46992 | 12199 ft | 321 kts | 52° |
| 2026-04-30 18:03 | 50.49073 | 3.54956 | 12206 ft | 320 kts | 52° |
| 2026-04-30 18:04 | 50.53346 | 3.62761 | 10748 ft | 302 kts | 52° |
| 2026-04-30 18:05 | 50.58606 | 3.72400 | 8623 ft | 282 kts | 53° |
| 2026-04-30 18:06 | 50.63595 | 3.81595 | 6376 ft | 272 kts | 54° |
| 2026-04-30 18:07 | 50.68415 | 3.90499 | 4141 ft | 261 kts | 54° |
| 2026-04-30 18:08 | 50.71770 | 3.96696 | 3155 ft | 229 kts | 55° |
| 2026-04-30 18:09 | 50.75704 | 4.04030 | 2968 ft | 218 kts | 55° |
| 2026-04-30 18:10 | 50.79620 | 4.11338 | 2950 ft | 217 kts | 53° |
| 2026-04-30 18:11 | 50.84666 | 4.16530 | 1989 ft | 204 kts | 39° |
| 2026-04-30 18:11 | 50.86573 | 4.21162 | 2002 ft | 157 kts | 82° |
| 2026-04-30 18:12 | 50.87149 | 4.26362 | 1992 ft | 161 kts | 83° |
| 2026-04-30 18:13 | 50.87472 | 4.29247 | 2000 ft | 159 kts | 83° |
| 2026-04-30 18:13 | 50.87755 | 4.34258 | 1610 ft | 137 kts | 92° |
| 2026-04-30 18:14 | 50.87744 | 4.37027 | 1088 ft | 117 kts | 89° |
| 2026-04-30 18:15 | 50.88505 | 4.40826 | 585 ft | 126 kts | 66° |
| 2026-04-30 18:15 | 50.89623 | 4.44652 | 276 ft | 126 kts | 66° |
| 2026-04-30 18:16 | 50.90360 | 4.47172 | 142 ft | 111 kts | 68° |
| 2026-04-30 18:16 | 50.90654 | 4.48258 | 141 ft | 28 kts | 92° |
| 2026-04-30 18:17 | 50.90616 | 4.48422 | 142 ft | 0 kts | 115° |
| 2026-04-30 18:18 | 50.90611 | 4.48439 | 142 ft | 4 kts | 115° |
| 2026-04-30 18:18 | 50.90604 | 4.48461 | 142 ft | 5 kts | 117° |
| 2026-04-30 18:18 | 50.90575 | 4.48538 | 139 ft | 12 kts | 122° |
| 2026-04-30 18:18 | 50.90504 | 4.48562 | 138 ft | 13 kts | 225° |
| 2026-04-30 18:19 | 50.90466 | 4.48450 | 139 ft | 10 kts | 245° |
| 2026-04-30 18:19 | 50.90436 | 4.48390 | 140 ft | 6 kts | 197° |
| 2026-04-30 18:19 | 50.90400 | 4.48407 | 141 ft | 7 kts | 157° |
| 2026-04-30 18:19 | 50.90374 | 4.48424 | 141 ft | 0 kts | 157° |